sensor_id;sensor_type;location;lat;lon;timestamp;pressure;altitude;pressure_sealevel;temperature;humidity
50250;BME280;36133;42.522;27.456;2022-07-24T00:00:32;101153.16;;;27.67;58.45
50250;BME280;36133;42.522;27.456;2022-07-24T00:02:57;100973.44;;;26.33;59.27
50250;BME280;36133;42.522;27.456;2022-07-24T00:05:23;100947.19;;;26.25;59.13
50250;BME280;36133;42.522;27.456;2022-07-24T00:07:48;101081.50;;;27.11;59.20
50250;BME280;36133;42.522;27.456;2022-07-24T00:10:14;101234.53;;;27.86;59.39
50250;BME280;36133;42.522;27.456;2022-07-24T00:12:39;101330.88;;;28.49;59.96
50250;BME280;36133;42.522;27.456;2022-07-24T00:15:06;101329.06;;;28.63;59.23
50250;BME280;36133;42.522;27.456;2022-07-24T00:17:31;101207.38;;;28.12;58.52
50250;BME280;36133;42.522;27.456;2022-07-24T00:19:57;101287.00;;;28.75;57.58
50250;BME280;36133;42.522;27.456;2022-07-24T00:22:22;101241.03;;;28.35;57.80
50250;BME280;36133;42.522;27.456;2022-07-24T00:24:49;101183.47;;;28.16;57.28
50250;BME280;36133;42.522;27.456;2022-07-24T00:27:14;101248.69;;;28.48;57.51
50250;BME280;36133;42.522;27.456;2022-07-24T00:29:40;101319.00;;;28.67;57.78
50250;BME280;36133;42.522;27.456;2022-07-24T00:32:06;101039.41;;;26.70;58.59
50250;BME280;36133;42.522;27.456;2022-07-24T00:34:31;101164.63;;;27.16;60.44
50250;BME280;36133;42.522;27.456;2022-07-24T00:36:57;101159.50;;;26.84;62.08
50250;BME280;36133;42.522;27.456;2022-07-24T00:39:22;101221.72;;;27.56;61.51
50250;BME280;36133;42.522;27.456;2022-07-24T00:41:48;101002.53;;;26.25;61.20
50250;BME280;36133;42.522;27.456;2022-07-24T00:44:15;101176.00;;;27.49;61.43
50250;BME280;36133;42.522;27.456;2022-07-24T00:46:44;101272.50;;;28.25;61.10
50250;BME280;36133;42.522;27.456;2022-07-24T00:49:12;101284.56;;;28.68;60.02
50250;BME280;36133;42.522;27.456;2022-07-24T00:51:39;101116.69;;;27.15;60.78
50250;BME280;36133;42.522;27.456;2022-07-24T00:54:07;101260.97;;;27.73;61.79
50250;BME280;36133;42.522;27.456;2022-07-24T00:56:33;101249.50;;;27.90;61.42
50250;BME280;36133;42.522;27.456;2022-07-24T00:59:00;101235.97;;;26.85;64.65
50250;BME280;36133;42.522;27.456;2022-07-24T01:01:25;101159.13;;;26.46;64.40
50250;BME280;36133;42.522;27.456;2022-07-24T01:03:51;101247.63;;;26.82;65.17
50250;BME280;36133;42.522;27.456;2022-07-24T01:06:16;101063.16;;;26.76;61.35
50250;BME280;36133;42.522;27.456;2022-07-24T01:08:42;101136.75;;;26.92;61.96
50250;BME280;36133;42.522;27.456;2022-07-24T01:11:11;101290.34;;;26.50;67.23
50250;BME280;36133;42.522;27.456;2022-07-24T01:13:37;101297.44;;;25.34;70.66
50250;BME280;36133;42.522;27.456;2022-07-24T01:16:03;101078.56;;;25.32;66.84
50250;BME280;36133;42.522;27.456;2022-07-24T01:18:29;101230.91;;;27.52;62.51
50250;BME280;36133;42.522;27.456;2022-07-24T01:20:54;101164.41;;;26.97;62.13
50250;BME280;36133;42.522;27.456;2022-07-24T01:23:23;101076.28;;;24.94;66.57
50250;BME280;36133;42.522;27.456;2022-07-24T01:25:49;100879.34;;;24.02;65.68
50250;BME280;36133;42.522;27.456;2022-07-24T01:28:14;101011.59;;;24.44;66.87
50250;BME280;36133;42.522;27.456;2022-07-24T01:30:40;101050.66;;;26.34;62.13
50250;BME280;36133;42.522;27.456;2022-07-24T01:33:06;101019.41;;;24.98;64.53
50250;BME280;36133;42.522;27.456;2022-07-24T01:35:32;101207.34;;;25.43;66.63
50250;BME280;36133;42.522;27.456;2022-07-24T01:37:58;100928.09;;;23.28;67.10
50250;BME280;36133;42.522;27.456;2022-07-24T01:40:23;101037.28;;;24.54;64.70
50250;BME280;36133;42.522;27.456;2022-07-24T01:42:50;101018.63;;;24.09;64.54
50250;BME280;36133;42.522;27.456;2022-07-24T01:45:15;101138.25;;;25.33;62.50
50250;BME280;36133;42.522;27.456;2022-07-24T01:47:41;101096.81;;;24.30;64.68
50250;BME280;36133;42.522;27.456;2022-07-24T01:50:09;101013.81;;;24.47;62.46
50250;BME280;36133;42.522;27.456;2022-07-24T01:52:35;101196.25;;;26.25;61.13
50250;BME280;36133;42.522;27.456;2022-07-24T01:55:01;101101.47;;;25.53;60.05
50250;BME280;36133;42.522;27.456;2022-07-24T01:57:26;101159.53;;;25.89;59.78
50250;BME280;36133;42.522;27.456;2022-07-24T01:59:52;101210.16;;;25.84;60.25
50250;BME280;36133;42.522;27.456;2022-07-24T02:02:17;101189.38;;;25.51;59.82
50250;BME280;36133;42.522;27.456;2022-07-24T02:04:43;101134.00;;;24.95;59.78
50250;BME280;36133;42.522;27.456;2022-07-24T02:07:08;101260.16;;;25.57;59.76
50250;BME280;36133;42.522;27.456;2022-07-24T02:09:34;101271.44;;;25.30;60.24
50250;BME280;36133;42.522;27.456;2022-07-24T02:11:59;100933.00;;;23.21;60.70
50250;BME280;36133;42.522;27.456;2022-07-24T02:14:25;100985.50;;;23.94;59.04
50250;BME280;36133;42.522;27.456;2022-07-24T02:16:50;101084.13;;;24.34;59.58
50250;BME280;36133;42.522;27.456;2022-07-24T02:19:16;101235.78;;;25.29;59.29
50250;BME280;36133;42.522;27.456;2022-07-24T02:21:41;101088.78;;;24.23;59.46
50250;BME280;36133;42.522;27.456;2022-07-24T02:24:07;101021.09;;;24.06;58.54
50250;BME280;36133;42.522;27.456;2022-07-24T02:26:33;101165.00;;;25.07;58.06
50250;BME280;36133;42.522;27.456;2022-07-24T02:28:58;101158.66;;;25.17;57.24
50250;BME280;36133;42.522;27.456;2022-07-24T02:31:24;101139.06;;;25.29;56.96
50250;BME280;36133;42.522;27.456;2022-07-24T02:33:49;101241.94;;;25.77;57.52
50250;BME280;36133;42.522;27.456;2022-07-24T02:36:15;101256.59;;;25.77;58.67
50250;BME280;36133;42.522;27.456;2022-07-24T02:38:41;101140.00;;;24.67;58.88
50250;BME280;36133;42.522;27.456;2022-07-24T02:41:07;101217.84;;;25.47;59.98
50250;BME280;36133;42.522;27.456;2022-07-24T02:43:33;101256.06;;;25.80;59.50
50250;BME280;36133;42.522;27.456;2022-07-24T02:45:58;101145.06;;;24.95;59.58
50250;BME280;36133;42.522;27.456;2022-07-24T02:48:24;101161.97;;;25.04;60.48
50250;BME280;36133;42.522;27.456;2022-07-24T02:50:50;101246.41;;;24.84;62.27
50250;BME280;36133;42.522;27.456;2022-07-24T02:53:16;101261.63;;;24.97;62.37
50250;BME280;36133;42.522;27.456;2022-07-24T02:55:42;101242.75;;;24.74;62.65
50250;BME280;36133;42.522;27.456;2022-07-24T02:58:07;101077.19;;;24.26;60.63
50250;BME280;36133;42.522;27.456;2022-07-24T03:00:33;101218.94;;;25.56;59.67
50250;BME280;36133;42.522;27.456;2022-07-24T03:02:59;101147.09;;;25.40;59.29
50250;BME280;36133;42.522;27.456;2022-07-24T03:05:25;101023.25;;;24.61;60.45
50250;BME280;36133;42.522;27.456;2022-07-24T03:07:50;101218.47;;;25.84;60.13
50250;BME280;36133;42.522;27.456;2022-07-24T03:10:16;101050.09;;;25.22;58.54
50250;BME280;36133;42.522;27.456;2022-07-24T03:12:42;101135.91;;;26.32;55.80
50250;BME280;36133;42.522;27.456;2022-07-24T03:15:09;101048.13;;;24.09;59.75
50250;BME280;36133;42.522;27.456;2022-07-24T03:17:35;101021.91;;;23.54;60.40
50250;BME280;36133;42.522;27.456;2022-07-24T03:20:02;101242.44;;;25.43;58.01
50250;BME280;36133;42.522;27.456;2022-07-24T03:22:28;101069.97;;;24.15;58.16
50250;BME280;36133;42.522;27.456;2022-07-24T03:24:54;101007.31;;;23.53;58.69
50250;BME280;36133;42.522;27.456;2022-07-24T03:27:19;101074.97;;;24.23;57.46
50250;BME280;36133;42.522;27.456;2022-07-24T03:29:45;101151.41;;;24.86;58.10
50250;BME280;36133;42.522;27.456;2022-07-24T03:32:10;101160.91;;;25.35;57.37
50250;BME280;36133;42.522;27.456;2022-07-24T03:34:36;101266.25;;;26.51;55.17
50250;BME280;36133;42.522;27.456;2022-07-24T03:37:01;101218.41;;;26.15;55.42
50250;BME280;36133;42.522;27.456;2022-07-24T03:39:27;101251.22;;;25.15;59.09
50250;BME280;36133;42.522;27.456;2022-07-24T03:41:52;101213.81;;;24.92;58.43
50250;BME280;36133;42.522;27.456;2022-07-24T03:44:18;101271.66;;;25.19;58.84
50250;BME280;36133;42.522;27.456;2022-07-24T03:46:43;101212.44;;;24.89;59.09
50250;BME280;36133;42.522;27.456;2022-07-24T03:49:09;101246.41;;;24.90;58.58
50250;BME280;36133;42.522;27.456;2022-07-24T03:51:34;101259.78;;;25.13;58.12
50250;BME280;36133;42.522;27.456;2022-07-24T03:54:03;101266.28;;;26.00;55.52
50250;BME280;36133;42.522;27.456;2022-07-24T03:56:28;101233.88;;;25.34;56.94
50250;BME280;36133;42.522;27.456;2022-07-24T03:58:55;101061.03;;;23.93;57.23
50250;BME280;36133;42.522;27.456;2022-07-24T04:01:21;101245.19;;;25.33;56.42
50250;BME280;36133;42.522;27.456;2022-07-24T04:03:47;101060.75;;;24.57;55.73
50250;BME280;36133;42.522;27.456;2022-07-24T04:06:13;101232.53;;;26.03;55.49
50250;BME280;36133;42.522;27.456;2022-07-24T04:08:38;101157.44;;;24.82;57.12
50250;BME280;36133;42.522;27.456;2022-07-24T04:11:04;101114.47;;;25.42;55.33
50250;BME280;36133;42.522;27.456;2022-07-24T04:13:30;101233.09;;;26.10;55.34
50250;BME280;36133;42.522;27.456;2022-07-24T04:15:56;101130.41;;;24.90;56.04
50250;BME280;36133;42.522;27.456;2022-07-24T04:18:22;101251.38;;;25.70;56.15
50250;BME280;36133;42.522;27.456;2022-07-24T04:20:48;101197.94;;;25.39;56.76
50250;BME280;36133;42.522;27.456;2022-07-24T04:23:14;101276.53;;;25.99;56.58
50250;BME280;36133;42.522;27.456;2022-07-24T04:25:40;101198.00;;;25.85;55.89
50250;BME280;36133;42.522;27.456;2022-07-24T04:28:06;101103.41;;;25.12;56.13
50250;BME280;36133;42.522;27.456;2022-07-24T04:30:31;101093.97;;;24.88;56.77
50250;BME280;36133;42.522;27.456;2022-07-24T04:32:57;101164.09;;;24.87;58.46
50250;BME280;36133;42.522;27.456;2022-07-24T04:35:23;101150.66;;;25.16;58.12
50250;BME280;36133;42.522;27.456;2022-07-24T04:37:48;101297.00;;;26.04;57.64
50250;BME280;36133;42.522;27.456;2022-07-24T04:40:14;101060.59;;;25.04;56.61
50250;BME280;36133;42.522;27.456;2022-07-24T04:42:40;101050.94;;;25.32;56.40
50250;BME280;36133;42.522;27.456;2022-07-24T04:45:06;101106.72;;;25.85;56.13
50250;BME280;36133;42.522;27.456;2022-07-24T04:47:33;101265.59;;;26.90;55.99
50250;BME280;36133;42.522;27.456;2022-07-24T04:49:59;101284.91;;;27.59;53.92
50250;BME280;36133;42.522;27.456;2022-07-24T04:52:25;101239.44;;;27.16;54.87
50250;BME280;36133;42.522;27.456;2022-07-24T04:54:50;101099.00;;;27.06;52.89
50250;BME280;36133;42.522;27.456;2022-07-24T04:57:16;101064.28;;;27.19;51.66
50250;BME280;36133;42.522;27.456;2022-07-24T04:59:41;100951.63;;;26.26;52.74
50250;BME280;36133;42.522;27.456;2022-07-24T05:02:07;101224.00;;;27.83;52.57
50250;BME280;36133;42.522;27.456;2022-07-24T05:04:32;101137.16;;;27.88;51.89
50250;BME280;36133;42.522;27.456;2022-07-24T05:07:00;101185.06;;;28.70;50.99
50250;BME280;36133;42.522;27.456;2022-07-24T05:09:27;101286.16;;;29.22;50.96
50250;BME280;36133;42.522;27.456;2022-07-24T05:11:52;101068.63;;;28.12;51.30
50250;BME280;36133;42.522;27.456;2022-07-24T05:14:18;101170.28;;;28.03;52.54
50250;BME280;36133;42.522;27.456;2022-07-24T05:16:43;101253.28;;;29.43;51.40
50250;BME280;36133;42.522;27.456;2022-07-24T05:19:09;101228.56;;;29.04;51.93
50250;BME280;36133;42.522;27.456;2022-07-24T05:21:34;101135.03;;;28.94;51.47
50250;BME280;36133;42.522;27.456;2022-07-24T05:24:00;101208.00;;;28.57;53.34
50250;BME280;36133;42.522;27.456;2022-07-24T05:26:28;101225.75;;;28.61;53.68
50250;BME280;36133;42.522;27.456;2022-07-24T05:28:53;101204.78;;;28.74;53.03
50250;BME280;36133;42.522;27.456;2022-07-24T05:31:19;101292.69;;;29.31;52.99
50250;BME280;36133;42.522;27.456;2022-07-24T05:33:45;101265.09;;;29.16;53.04
50250;BME280;36133;42.522;27.456;2022-07-24T05:36:10;101281.50;;;29.36;52.30
50250;BME280;36133;42.522;27.456;2022-07-24T05:38:36;101097.91;;;28.47;52.53
50250;BME280;36133;42.522;27.456;2022-07-24T05:41:01;101262.13;;;30.01;51.17
50250;BME280;36133;42.522;27.456;2022-07-24T05:43:27;101216.94;;;29.02;52.32
50250;BME280;36133;42.522;27.456;2022-07-24T05:45:52;101279.47;;;30.31;50.94
50250;BME280;36133;42.522;27.456;2022-07-24T05:48:18;101229.75;;;30.38;49.76
